Time;durP1;ratioP1;P1;durP2;ratioP2;P2;SDS_P1;SDS_P2;PMS_P1;PMS_P2;Temp;Humidity;BMP_temperature;BMP_pressure;BME280_temperature;BME280_humidity;BME280_pressure;Samples;Min_cycle;Max_cycle;Signal;HPM_P1;HPM_P2
2021/05/30 00:02:26;;;;;;;4.03;2.63;;;7.70;99.90;;;;;;5012941;28;20064;-71
2021/05/30 00:04:53;;;;;;;3.03;2.40;;;7.70;99.90;;;;;;5013495;28;20049;-71
2021/05/30 00:07:22;;;;;;;5.40;2.77;;;7.80;99.90;;;;;;5013225;28;20073;-70
2021/05/30 00:09:48;;;;;;;6.37;2.47;;;7.80;99.90;;;;;;5013932;28;20062;-71
2021/05/30 00:12:14;;;;;;;2.93;2.70;;;7.80;99.90;;;;;;5003025;28;20054;-70
2021/05/30 00:14:40;;;;;;;3.07;2.43;;;7.80;99.90;;;;;;4994247;28;20042;-70
2021/05/30 00:17:06;;;;;;;4.60;2.40;;;7.70;99.90;;;;;;5008300;28;20816;-71
2021/05/30 00:19:32;;;;;;;4.77;2.63;;;7.70;99.90;;;;;;4993869;28;20042;-71
2021/05/30 00:21:59;;;;;;;3.47;3.17;;;7.60;99.90;;;;;;4994040;28;20054;-71
2021/05/30 00:24:25;;;;;;;3.07;2.37;;;7.60;99.90;;;;;;5001626;28;20042;-71
2021/05/30 00:26:52;;;;;;;4.53;2.73;;;7.60;99.90;;;;;;5012437;28;20049;-70
2021/05/30 00:29:18;;;;;;;3.77;2.73;;;7.60;99.90;;;;;;5012761;28;20052;-70
2021/05/30 00:31:44;;;;;;;3.13;2.83;;;7.60;99.90;;;;;;5012304;28;20049;-71
2021/05/30 00:34:10;;;;;;;3.83;3.23;;;7.50;99.90;;;;;;5012791;28;20046;-71
2021/05/30 00:36:36;;;;;;;3.17;2.37;;;7.40;99.90;;;;;;5011895;28;20046;-71
2021/05/30 00:39:04;;;;;;;3.57;3.13;;;7.40;99.90;;;;;;5010914;28;20100;-71
2021/05/30 00:41:30;;;;;;;4.53;2.27;;;7.40;99.90;;;;;;5013099;28;20050;-70
2021/05/30 00:43:56;;;;;;;3.97;2.90;;;7.50;99.90;;;;;;5013017;28;20050;-70
2021/05/30 00:46:24;;;;;;;4.73;2.83;;;7.40;99.90;;;;;;4993121;28;20073;-71
2021/05/30 00:48:50;;;;;;;4.03;2.90;;;7.40;99.90;;;;;;4997487;28;20053;-70
2021/05/30 00:51:17;;;;;;;7.30;2.70;;;7.40;99.90;;;;;;5012822;28;20478;-71
2021/05/30 00:53:44;;;;;;;3.40;3.10;;;7.30;99.90;;;;;;5012405;28;20042;-71
2021/05/30 00:56:13;;;;;;;3.17;2.60;;;7.30;99.90;;;;;;4992478;28;20047;-71
2021/05/30 00:58:40;;;;;;;4.53;2.47;;;7.20;99.90;;;;;;4992673;28;20059;-70
2021/05/30 01:01:07;;;;;;;4.77;2.77;;;7.20;99.90;;;;;;5001193;28;20045;-70
2021/05/30 01:03:34;;;;;;;4.10;3.53;;;7.20;99.90;;;;;;5011951;28;20513;-70
2021/05/30 01:06:01;;;;;;;4.27;3.40;;;7.20;99.90;;;;;;5012153;28;20112;-70
2021/05/30 01:08:27;;;;;;;6.27;2.77;;;7.30;99.90;;;;;;5011953;28;20100;-71
2021/05/30 01:10:55;;;;;;;3.37;2.70;;;7.30;99.90;;;;;;5012249;28;20049;-71
2021/05/30 01:13:23;;;;;;;5.37;2.80;;;7.30;99.90;;;;;;5012416;28;20045;-70
2021/05/30 01:15:50;;;;;;;3.37;3.00;;;7.30;99.90;;;;;;5013420;28;20042;-70
2021/05/30 01:18:16;;;;;;;5.47;2.80;;;7.30;99.90;;;;;;5015805;28;20050;-70
2021/05/30 01:20:42;;;;;;;5.53;2.80;;;7.20;99.90;;;;;;5016482;28;20050;-71
2021/05/30 01:23:11;;;;;;;4.93;3.17;;;7.30;99.90;;;;;;5015555;28;20045;-71
2021/05/30 01:25:38;;;;;;;5.97;3.67;;;7.20;99.90;;;;;;5015668;28;20058;-71
2021/05/30 01:28:05;;;;;;;3.50;2.67;;;7.20;99.90;;;;;;5016064;28;20049;-71
2021/05/30 01:30:32;;;;;;;3.60;2.93;;;7.10;99.90;;;;;;5015847;28;20387;-71
2021/05/30 01:32:59;;;;;;;4.93;2.70;;;7.00;99.90;;;;;;5015464;28;20045;-71
2021/05/30 01:35:25;;;;;;;3.37;3.07;;;7.00;99.90;;;;;;5015080;28;20054;-70
2021/05/30 01:37:53;;;;;;;3.37;2.80;;;6.90;99.90;;;;;;5014152;28;20046;-71
2021/05/30 01:40:22;;;;;;;3.60;3.23;;;7.00;99.90;;;;;;5015586;28;20042;-70
2021/05/30 01:42:51;;;;;;;3.07;2.80;;;6.90;99.90;;;;;;5015448;28;20046;-71
2021/05/30 01:45:18;;;;;;;4.07;2.83;;;6.90;99.90;;;;;;5013537;28;20058;-71
2021/05/30 01:47:45;;;;;;;3.00;2.70;;;6.80;99.90;;;;;;5015314;28;20046;-71
2021/05/30 01:50:14;;;;;;;4.80;2.97;;;6.80;99.90;;;;;;5011036;28;20051;-71
2021/05/30 01:52:40;;;;;;;6.60;3.20;;;6.70;99.90;;;;;;4995949;28;20097;-70
2021/05/30 01:55:09;;;;;;;8.30;4.13;;;6.70;99.90;;;;;;5012656;28;20081;-70
2021/05/30 01:57:43;;;;;;;4.27;3.50;;;6.70;99.90;;;;;;5014671;28;20042;-71
2021/05/30 02:00:11;;;;;;;5.00;3.27;;;6.70;99.90;;;;;;5014849;28;20045;-71
2021/05/30 02:02:38;;;;;;;5.30;3.30;;;6.60;99.90;;;;;;5015138;28;20050;-71
2021/05/30 02:05:05;;;;;;;4.07;3.60;;;6.60;99.90;;;;;;5015282;28;20045;-70
2021/05/30 02:07:33;;;;;;;3.83;3.50;;;6.60;99.90;;;;;;5013235;28;20046;-71
2021/05/30 02:10:00;;;;;;;3.47;2.93;;;6.60;99.90;;;;;;5015454;28;20084;-71
2021/05/30 02:12:27;;;;;;;5.83;2.87;;;6.50;99.90;;;;;;5013393;28;20474;-71
2021/05/30 02:14:55;;;;;;;5.93;3.10;;;6.50;99.90;;;;;;5015068;28;20046;-71
2021/05/30 02:17:22;;;;;;;5.70;3.60;;;6.50;99.90;;;;;;5014466;28;20050;-70
2021/05/30 02:19:49;;;;;;;3.73;3.07;;;6.50;99.90;;;;;;5013812;28;20414;-70
2021/05/30 02:22:15;;;;;;;4.33;3.43;;;6.40;99.90;;;;;;4995108;28;20509;-70
2021/05/30 02:24:44;;;;;;;4.00;3.07;;;6.40;99.90;;;;;;4994764;28;20054;-71
2021/05/30 02:27:10;;;;;;;6.10;3.70;;;6.30;99.90;;;;;;4998273;28;20045;-71
2021/05/30 02:29:38;;;;;;;4.10;3.47;;;6.20;99.90;;;;;;5014742;28;20081;-71
2021/05/30 02:32:06;;;;;;;5.27;3.83;;;6.20;99.90;;;;;;5014623;28;20048;-71
2021/05/30 02:34:33;;;;;;;5.90;3.83;;;6.10;99.90;;;;;;5008149;28;20038;-71
2021/05/30 02:36:59;;;;;;;5.90;3.60;;;6.10;99.90;;;;;;4995092;28;20046;-71
2021/05/30 02:39:26;;;;;;;5.60;3.50;;;6.00;99.90;;;;;;5003187;28;20050;-71
2021/05/30 02:41:52;;;;;;;3.90;3.50;;;6.00;99.90;;;;;;4995493;28;20046;-71
2021/05/30 02:44:18;;;;;;;4.10;3.70;;;5.90;99.90;;;;;;5005844;28;20050;-71
2021/05/30 02:46:44;;;;;;;6.13;3.90;;;5.80;99.90;;;;;;5014071;28;20046;-71
2021/05/30 02:49:11;;;;;;;4.03;3.43;;;5.80;99.90;;;;;;5014514;28;20050;-71
2021/05/30 02:51:37;;;;;;;7.17;4.17;;;5.80;99.90;;;;;;5014513;28;20387;-70
2021/05/30 02:54:04;;;;;;;4.63;3.57;;;5.80;99.90;;;;;;5014661;28;20053;-71
2021/05/30 02:56:30;;;;;;;5.33;3.40;;;5.70;99.90;;;;;;5013891;28;20050;-71
2021/05/30 02:58:56;;;;;;;5.60;3.67;;;5.60;99.90;;;;;;5014367;28;20042;-71
2021/05/30 03:01:23;;;;;;;6.80;4.07;;;5.50;99.90;;;;;;5014430;28;20096;-71
2021/05/30 03:03:50;;;;;;;4.93;3.03;;;5.50;99.90;;;;;;4999150;28;20438;-71
2021/05/30 03:06:17;;;;;;;6.13;3.43;;;5.50;99.90;;;;;;4994434;28;20043;-70
2021/05/30 03:08:43;;;;;;;4.60;4.20;;;5.50;99.90;;;;;;5003476;28;20046;-72
2021/05/30 03:11:10;;;;;;;4.17;3.27;;;5.50;99.90;;;;;;5014419;28;20100;-71
2021/05/30 03:13:36;;;;;;;7.07;3.90;;;5.60;99.90;;;;;;5014302;28;20096;-71
2021/05/30 03:16:02;;;;;;;6.43;4.03;;;5.80;99.90;;;;;;4998736;28;20058;-70
2021/05/30 03:18:29;;;;;;;6.37;3.80;;;5.80;99.90;;;;;;4994344;28;20100;-71
2021/05/30 03:20:55;;;;;;;5.47;3.93;;;5.80;99.90;;;;;;5021184;28;20050;-71
2021/05/30 03:23:22;;;;;;;6.07;3.47;;;5.70;99.90;;;;;;4999267;28;20049;-70
2021/05/30 03:25:48;;;;;;;6.77;3.17;;;5.80;99.90;;;;;;4999089;28;20050;-71
2021/05/30 03:28:14;;;;;;;4.10;3.60;;;5.80;99.90;;;;;;5010040;28;20046;-70
2021/05/30 03:30:40;;;;;;;4.27;3.37;;;5.80;99.90;;;;;;5013498;28;20517;-70
2021/05/30 03:33:06;;;;;;;6.20;4.20;;;5.80;99.90;;;;;;5013977;28;20046;-70
2021/05/30 03:35:32;;;;;;;6.27;4.03;;;5.80;99.90;;;;;;5005664;28;20049;-71
2021/05/30 03:38:01;;;;;;;5.83;3.50;;;5.90;99.90;;;;;;4993731;28;20108;-70
2021/05/30 03:40:30;;;;;;;6.03;3.63;;;6.00;99.90;;;;;;4994022;28;20042;-70
2021/05/30 03:42:57;;;;;;;4.30;3.90;;;6.10;99.90;;;;;;4994230;28;20049;-70
2021/05/30 03:45:24;;;;;;;4.87;3.20;;;6.20;99.90;;;;;;4993665;28;20054;-71
2021/05/30 03:47:51;;;;;;;6.47;3.60;;;6.20;99.90;;;;;;5000898;28;20046;-70
2021/05/30 03:50:18;;;;;;;5.33;3.80;;;6.30;99.90;;;;;;5012631;28;20046;-70
2021/05/30 03:52:45;;;;;;;4.90;3.87;;;6.40;99.90;;;;;;5013710;28;20049;-71
2021/05/30 03:55:12;;;;;;;4.07;3.10;;;6.50;99.90;;;;;;4999642;28;20054;-70
2021/05/30 03:57:40;;;;;;;3.60;2.93;;;6.50;99.90;;;;;;4993698;28;20453;-70
2021/05/30 04:00:08;;;;;;;5.40;3.53;;;6.60;99.90;;;;;;4993496;28;20568;-71
2021/05/30 04:02:34;;;;;;;7.83;3.60;;;6.70;99.90;;;;;;5008444;28;20490;-70
2021/05/30 04:05:00;;;;;;;5.37;3.60;;;6.70;99.90;;;;;;4993442;28;20051;-70
2021/05/30 04:07:26;;;;;;;4.97;3.80;;;6.80;99.90;;;;;;4993773;28;20072;-70
2021/05/30 04:09:52;;;;;;;5.13;3.40;;;6.90;99.90;;;;;;4993681;28;20042;-71
2021/05/30 04:12:18;;;;;;;4.90;3.10;;;7.00;99.90;;;;;;4993625;28;20073;-71
2021/05/30 04:14:45;;;;;;;3.87;3.50;;;7.10;99.90;;;;;;4993469;28;20057;-70
2021/05/30 04:17:11;;;;;;;7.73;3.57;;;7.20;99.90;;;;;;5008937;28;20053;-70
2021/05/30 04:19:38;;;;;;;3.40;2.73;;;7.40;99.90;;;;;;5012866;28;20045;-70
2021/05/30 04:22:04;;;;;;;4.87;3.03;;;7.60;99.90;;;;;;5012431;28;20041;-71
2021/05/30 04:24:30;;;;;;;4.87;3.33;;;7.70;99.90;;;;;;5013193;28;20402;-69
2021/05/30 04:26:56;;;;;;;6.17;3.10;;;8.00;99.90;;;;;;5013034;28;20046;-71
2021/05/30 04:29:25;;;;;;;5.07;2.87;;;8.10;99.90;;;;;;5013186;28;20046;-71
2021/05/30 04:31:52;;;;;;;3.87;2.90;;;8.10;99.90;;;;;;5013334;28;20045;-71
2021/05/30 04:34:18;;;;;;;4.33;3.37;;;8.20;99.90;;;;;;5012980;28;20058;-70
2021/05/30 04:36:44;;;;;;;4.03;3.40;;;8.30;99.90;;;;;;5013109;28;20081;-70
2021/05/30 04:39:10;;;;;;;4.90;3.90;;;8.50;99.90;;;;;;5012004;28;20042;-71
2021/05/30 04:41:36;;;;;;;3.95;2.85;;;8.60;99.90;;;;;;5012965;28;20409;-71
2021/05/30 04:44:03;;;;;;;4.47;3.50;;;8.50;99.90;;;;;;5013170;28;20050;-70
2021/05/30 04:46:29;;;;;;;3.33;3.03;;;8.70;99.90;;;;;;5013272;28;20042;-70
2021/05/30 04:48:56;;;;;;;3.63;3.05;;;8.70;99.90;;;;;;5013506;28;20050;-71
2021/05/30 04:51:22;;;;;;;3.85;3.47;;;8.90;99.90;;;;;;5011926;28;20050;-70
2021/05/30 04:53:48;;;;;;;3.70;3.20;;;9.00;99.90;;;;;;5017056;28;20046;-71
2021/05/30 04:56:18;;;;;;;4.82;3.78;;;9.10;99.90;;;;;;5016630;28;20054;-70
2021/05/30 04:58:44;;;;;;;3.03;2.65;;;9.10;99.90;;;;;;5016543;28;20057;-71
2021/05/30 05:01:10;;;;;;;6.43;2.97;;;9.20;99.90;;;;;;5016962;28;20045;-71
2021/05/30 05:03:36;;;;;;;2.80;2.58;;;9.30;99.90;;;;;;5016982;28;20065;-70
2021/05/30 05:06:04;;;;;;;5.53;3.15;;;9.50;99.90;;;;;;5015447;28;20046;-70
2021/05/30 05:08:30;;;;;;;4.22;3.00;;;9.60;99.90;;;;;;5016541;28;20046;-70
2021/05/30 05:10:56;;;;;;;3.05;2.20;;;9.60;99.90;;;;;;5016427;28;20543;-71
2021/05/30 05:13:22;;;;;;;2.50;2.30;;;9.80;99.90;;;;;;5016379;28;20494;-71
2021/05/30 05:15:50;;;;;;;3.83;3.38;;;9.90;99.90;;;;;;5015581;28;20468;-71
2021/05/30 05:18:18;;;;;;;3.28;2.97;;;10.00;99.90;;;;;;5016491;28;20076;-70
2021/05/30 05:20:45;;;;;;;2.60;2.40;;;10.20;99.90;;;;;;5016256;28;20097;-71
2021/05/30 05:23:13;;;;;;;6.72;3.28;;;10.30;99.90;;;;;;5017193;28;20062;-71
2021/05/30 05:25:39;;;;;;;5.45;2.47;;;10.40;99.90;;;;;;5016619;28;20057;-70
2021/05/30 05:28:06;;;;;;;7.22;3.33;;;10.50;99.90;;;;;;5016657;28;20391;-71
2021/05/30 05:30:33;;;;;;;2.92;2.63;;;10.60;99.90;;;;;;5015954;28;20046;-70
2021/05/30 05:32:59;;;;;;;4.03;2.75;;;10.70;99.90;;;;;;5016662;28;20050;-71
2021/05/30 05:35:26;;;;;;;6.38;3.38;;;10.70;99.90;;;;;;5016789;28;20148;-70
2021/05/30 05:37:54;;;;;;;4.65;3.10;;;10.80;99.90;;;;;;5017071;28;20096;-70
2021/05/30 05:40:22;;;;;;;6.50;4.32;;;11.00;99.90;;;;;;5003283;28;20046;-70
2021/05/30 05:42:49;;;;;;;8.23;4.63;;;11.00;99.90;;;;;;5010975;28;20045;-71
2021/05/30 05:45:16;;;;;;;4.00;3.45;;;11.20;99.90;;;;;;5015667;28;20050;-70
2021/05/30 05:47:43;;;;;;;4.60;3.03;;;11.40;99.90;;;;;;5016186;28;20050;-69
2021/05/30 05:50:10;;;;;;;3.67;2.88;;;11.40;99.90;;;;;;5003692;28;20054;-71
2021/05/30 05:52:36;;;;;;;3.75;2.35;;;11.60;99.90;;;;;;4997377;28;20517;-71
2021/05/30 05:55:03;;;;;;;4.65;2.72;;;11.70;99.90;;;;;;5015232;28;20046;-70
2021/05/30 05:57:30;;;;;;;2.92;2.05;;;12.00;99.90;;;;;;5016381;28;20076;-70
2021/05/30 05:59:56;;;;;;;5.53;2.90;;;12.10;99.90;;;;;;5016139;28;20073;-71
2021/05/30 06:02:22;;;;;;;4.75;2.90;;;12.20;99.90;;;;;;4997026;28;20046;-71
2021/05/30 06:04:49;;;;;;;5.60;3.53;;;12.50;99.90;;;;;;4996477;28;20057;-72
2021/05/30 06:07:15;;;;;;;4.07;3.67;;;12.80;99.90;;;;;;4996228;28;20096;-71
2021/05/30 06:09:41;;;;;;;4.78;3.25;;;13.00;99.90;;;;;;4995481;28;20042;-71
2021/05/30 06:12:09;;;;;;;4.90;3.25;;;13.30;99.90;;;;;;4997526;28;20043;-71
2021/05/30 06:14:36;;;;;;;8.88;2.55;;;13.70;99.90;;;;;;4995990;28;20042;-71
2021/05/30 06:17:03;;;;;;;6.10;2.97;;;13.80;99.90;;;;;;5007887;28;20498;-71
2021/05/30 06:19:29;;;;;;;4.57;2.53;;;14.00;99.90;;;;;;5014733;28;20045;-71
2021/05/30 06:21:55;;;;;;;4.38;3.08;;;14.30;99.90;;;;;;5014382;28;20054;-70
2021/05/30 06:24:21;;;;;;;8.50;4.13;;;14.50;99.90;;;;;;5014479;28;20548;-71
2021/05/30 06:26:47;;;;;;;5.95;3.65;;;14.70;99.90;;;;;;5014014;28;20046;-71
2021/05/30 06:29:13;;;;;;;8.20;4.25;;;15.00;99.90;;;;;;5014931;28;20054;-71
2021/05/30 06:31:40;;;;;;;11.25;4.90;;;15.20;99.90;;;;;;5014879;28;20054;-71
2021/05/30 06:34:13;;;;;;;7.75;3.40;;;15.40;99.90;;;;;;5014778;28;20054;-71
2021/05/30 06:36:39;;;;;;;5.82;3.17;;;15.60;99.60;;;;;;5014600;28;20053;-71
2021/05/30 06:39:05;;;;;;;5.90;2.92;;;16.10;97.10;;;;;;5014299;28;20564;-70
2021/05/30 06:41:32;;;;;;;5.68;3.83;;;16.00;95.90;;;;;;5004009;28;20046;-71
2021/05/30 06:43:58;;;;;;;5.32;2.83;;;15.90;96.90;;;;;;5001438;28;20041;-70
2021/05/30 06:46:25;;;;;;;4.18;2.70;;;16.30;95.80;;;;;;5034056;28;20073;-70
2021/05/30 06:48:52;;;;;;;4.57;2.22;;;16.60;94.20;;;;;;5033911;28;20140;-71
2021/05/30 06:51:22;;;;;;;5.30;4.05;;;17.10;93.10;;;;;;5034497;28;20056;-71
2021/05/30 06:53:49;;;;;;;6.53;4.22;;;17.30;91.30;;;;;;5034297;28;20041;-73
2021/05/30 06:56:18;;;;;;;8.00;3.38;;;17.50;90.30;;;;;;5021501;28;20042;-71
2021/05/30 06:58:46;;;;;;;3.55;2.70;;;17.60;88.70;;;;;;5014772;28;20046;-71
2021/05/30 07:01:12;;;;;;;4.25;2.33;;;17.80;86.20;;;;;;5014118;28;20046;-71
2021/05/30 07:03:39;;;;;;;3.35;1.83;;;18.00;83.10;;;;;;4997067;28;20042;-72
2021/05/30 07:06:06;;;;;;;2.75;2.55;;;18.10;80.80;;;;;;4993928;28;20054;-71
2021/05/30 07:08:33;;;;;;;4.15;3.28;;;18.20;78.10;;;;;;4995305;28;20042;-71
2021/05/30 07:10:59;;;;;;;4.07;2.78;;;18.40;73.30;;;;;;4999158;28;20050;-72
2021/05/30 07:13:28;;;;;;;3.03;2.35;;;18.60;74.20;;;;;;4994185;28;20043;-72
2021/05/30 07:15:54;;;;;;;2.83;1.88;;;18.80;71.60;;;;;;4994336;28;20097;-72
2021/05/30 07:18:21;;;;;;;3.47;2.28;;;18.80;71.10;;;;;;4994174;28;20046;-71
2021/05/30 07:20:48;;;;;;;6.57;2.95;;;19.10;69.20;;;;;;4994380;28;20050;-71
2021/05/30 07:23:16;;;;;;;3.60;2.20;;;19.30;68.40;;;;;;4996257;28;20042;-70
2021/05/30 07:25:43;;;;;;;3.30;2.05;;;19.40;67.10;;;;;;5003818;28;20119;-71
2021/05/30 07:28:09;;;;;;;3.55;2.97;;;19.30;66.90;;;;;;5013093;28;20072;-70
2021/05/30 07:30:36;;;;;;;2.28;2.00;;;19.30;67.30;;;;;;5003282;28;20073;-72
2021/05/30 07:33:02;;;;;;;6.75;3.65;;;19.60;65.70;;;;;;4994006;28;20092;-71
2021/05/30 07:35:29;;;;;;;2.20;2.00;;;19.80;65.20;;;;;;5009607;28;20049;-71
2021/05/30 07:37:55;;;;;;;4.25;2.20;;;20.10;61.80;;;;;;5013624;28;20053;-70
2021/05/30 07:40:22;;;;;;;2.55;2.00;;;19.80;60.40;;;;;;5002619;28;20046;-71
2021/05/30 07:42:49;;;;;;;4.28;2.28;;;19.90;60.00;;;;;;4993991;28;20050;-71
2021/05/30 07:45:17;;;;;;;2.78;1.58;;;20.10;59.20;;;;;;4993392;28;20462;-71
2021/05/30 07:47:46;;;;;;;6.03;2.45;;;20.30;58.60;;;;;;4993205;28;20109;-70
2021/05/30 07:50:13;;;;;;;4.35;3.20;;;20.30;57.50;;;;;;4993365;28;20499;-70
2021/05/30 07:52:44;;;;;;;3.50;2.10;;;20.50;57.10;;;;;;5010348;28;20066;-71
2021/05/30 07:55:11;;;;;;;2.90;2.53;;;20.70;56.30;;;;;;5011115;28;20046;-71
2021/05/30 07:57:39;;;;;;;5.22;2.83;;;20.90;55.60;;;;;;5013186;28;20046;-71
2021/05/30 08:00:08;;;;;;;2.95;1.70;;;21.00;54.80;;;;;;5012825;28;20445;-71
2021/05/30 08:02:34;;;;;;;2.90;2.10;;;21.00;55.30;;;;;;5008193;28;20058;-72
2021/05/30 08:05:01;;;;;;;3.70;3.20;;;21.20;56.90;;;;;;4992826;28;20470;-71
2021/05/30 08:07:28;;;;;;;2.47;1.60;;;21.10;54.50;;;;;;4998459;28;20069;-70
2021/05/30 08:09:54;;;;;;;2.45;1.77;;;21.10;55.30;;;;;;4995184;28;20442;-77
2021/05/30 08:12:22;;;;;;;4.75;2.58;;;21.80;55.90;;;;;;5009669;28;20494;-77
2021/05/30 08:14:49;;;;;;;3.03;1.95;;;22.00;55.80;;;;;;5009731;28;20199;-73
2021/05/30 08:17:18;;;;;;;1.55;1.45;;;22.30;53.90;;;;;;5011713;28;20046;-73
2021/05/30 08:19:44;;;;;;;2.67;1.40;;;22.20;53.20;;;;;;5012169;28;20168;-73
2021/05/30 08:22:18;;;;;;;2.10;1.50;;;21.80;51.40;;;;;;5005570;28;20065;-72
2021/05/30 08:24:47;;;;;;;1.40;1.30;;;22.10;52.10;;;;;;5001967;28;20065;-73
2021/05/30 08:27:13;;;;;;;2.38;1.48;;;22.50;50.90;;;;;;5008914;28;20060;-72
2021/05/30 08:29:39;;;;;;;2.22;1.10;;;22.70;50.40;;;;;;5007093;28;20049;-70
2021/05/30 08:32:08;;;;;;;3.85;1.70;;;22.80;48.60;;;;;;4993054;28;20066;-71
2021/05/30 08:34:34;;;;;;;2.17;1.48;;;22.60;46.80;;;;;;5011882;28;20038;-70
2021/05/30 08:37:00;;;;;;;4.15;2.10;;;22.70;48.30;;;;;;5010280;28;20049;-71
2021/05/30 08:39:26;;;;;;;4.82;1.50;;;22.80;48.60;;;;;;5012349;28;20054;-73
2021/05/30 08:41:52;;;;;;;2.55;2.35;;;23.40;46.50;;;;;;4998696;28;20046;-73
2021/05/30 08:44:18;;;;;;;2.92;1.20;;;23.00;46.50;;;;;;5004984;28;20042;-71
2021/05/30 08:46:44;;;;;;;5.10;2.67;;;23.40;47.10;;;;;;5003367;28;20478;-72
2021/05/30 08:49:11;;;;;;;3.20;1.50;;;23.70;45.00;;;;;;5012029;28;20049;-73
2021/05/30 08:51:40;;;;;;;2.45;1.85;;;23.30;46.20;;;;;;5012079;28;20096;-70
2021/05/30 08:54:11;;;;;;;2.35;1.58;;;23.50;46.70;;;;;;5012323;28;20049;-71
2021/05/30 08:56:39;;;;;;;1.75;1.25;;;23.60;45.00;;;;;;5000565;28;20054;-73
2021/05/30 08:59:27;;;;;;;2.72;1.65;;;23.90;44.10;;;;;;4992581;28;20053;-71
2021/05/30 09:01:54;;;;;;;3.67;2.50;;;24.10;46.00;;;;;;4992730;28;20573;-76
2021/05/30 09:04:30;;;;;;;3.03;1.60;;;24.70;43.70;;;;;;5008573;28;20042;-73
2021/05/30 09:06:56;;;;;;;1.45;1.23;;;24.80;43.20;;;;;;5001241;28;20051;-73
2021/05/30 09:09:23;;;;;;;2.47;1.55;;;24.90;42.20;;;;;;4992702;28;20185;-70
2021/05/30 09:11:50;;;;;;;3.72;2.00;;;24.10;41.40;;;;;;5000833;28;20075;-70
2021/05/30 09:14:19;;;;;;;2.13;1.10;;;24.00;42.20;;;;;;5012107;28;20041;-70
2021/05/30 09:16:52;;;;;;;1.73;1.05;;;24.10;42.40;;;;;;5007201;28;20060;-70
2021/05/30 09:19:31;;;;;;;1.63;1.50;;;24.30;42.10;;;;;;5011017;28;20042;-69
2021/05/30 09:22:28;;;;;;;1.98;1.77;;;24.90;40.70;;;;;;5012336;28;20045;-72
2021/05/30 09:25:08;;;;;;;2.08;1.55;;;25.30;41.80;;;;;;5010395;28;20054;-73
2021/05/30 09:27:36;;;;;;;1.35;1.15;;;25.60;40.70;;;;;;4998077;28;20537;-72
2021/05/30 09:30:12;;;;;;;2.50;1.48;;;25.90;38.30;;;;;;5000485;28;20046;-71
2021/05/30 09:33:01;;;;;;;2.95;1.10;;;25.90;38.10;;;;;;5012175;28;20050;-73
2021/05/30 09:35:30;;;;;;;1.50;1.40;;;26.30;39.30;;;;;;5005977;28;20043;-73
2021/05/30 09:37:57;;;;;;;1.13;1.00;;;26.60;38.40;;;;;;4995919;28;20533;-72
2021/05/30 09:40:34;;;;;;;2.25;1.00;;;26.20;38.40;;;;;;4995814;28;20047;-72
2021/05/30 09:43:05;;;;;;;3.10;1.50;;;26.40;38.60;;;;;;4995859;28;20114;-72
2021/05/30 09:45:31;;;;;;;1.45;0.82;;;26.50;37.70;;;;;;4995289;28;20050;-73
2021/05/30 09:47:57;;;;;;;2.58;1.27;;;26.50;37.60;;;;;;4995491;28;20136;-73
2021/05/30 09:50:23;;;;;;;1.85;1.50;;;27.10;38.00;;;;;;5004457;28;20051;-73
2021/05/30 09:52:52;;;;;;;2.55;1.50;;;27.10;37.20;;;;;;5012502;28;20096;-73
2021/05/30 09:55:20;;;;;;;1.40;1.30;;;27.10;37.90;;;;;;5013554;28;20409;-73
2021/05/30 09:58:11;;;;;;;1.55;1.33;;;26.80;38.40;;;;;;5010291;28;20528;-73
2021/05/30 10:00:38;;;;;;;4.78;1.20;;;27.10;38.40;;;;;;4995531;28;20449;-73
2021/05/30 10:03:05;;;;;;;2.80;1.92;;;26.20;37.40;;;;;;4995752;28;20113;-72
2021/05/30 10:05:32;;;;;;;2.17;1.33;;;26.00;39.40;;;;;;4997494;28;20050;-73
2021/05/30 10:07:59;;;;;;;1.40;1.17;;;26.30;39.80;;;;;;5014478;28;20046;-73
2021/05/30 10:10:26;;;;;;;2.40;1.10;;;26.30;38.10;;;;;;5014963;28;20049;-73
2021/05/30 10:12:52;;;;;;;3.55;2.15;;;25.90;39.70;;;;;;5015273;28;20470;-74
2021/05/30 10:15:18;;;;;;;1.60;1.50;;;25.90;39.70;;;;;;5014752;28;20470;-73
2021/05/30 10:17:46;;;;;;;1.40;1.30;;;25.50;40.60;;;;;;5014251;28;20042;-73
2021/05/30 10:20:16;;;;;;;2.10;1.90;;;26.20;40.50;;;;;;5014371;28;20053;-73
2021/05/30 10:22:43;;;;;;;1.42;1.20;;;26.30;39.80;;;;;;5014187;28;20046;-74
2021/05/30 10:25:11;;;;;;;3.58;1.75;;;26.20;40.70;;;;;;5014681;28;20136;-72
2021/05/30 10:27:38;;;;;;;1.25;0.98;;;25.60;40.60;;;;;;5005515;28;20050;-73
2021/05/30 10:30:14;;;;;;;1.20;1.10;;;25.40;41.40;;;;;;4997447;28;20046;-73
2021/05/30 10:32:42;;;;;;;1.85;1.40;;;25.30;40.20;;;;;;5000849;28;20061;-73
2021/05/30 10:35:10;;;;;;;2.63;1.40;;;25.90;40.90;;;;;;5014011;28;20046;-72
2021/05/30 10:37:41;;;;;;;1.67;1.38;;;25.60;40.10;;;;;;5014738;28;20088;-73
2021/05/30 10:40:34;;;;;;;1.42;1.33;;;25.80;40.10;;;;;;5014153;28;20076;-73
2021/05/30 10:43:21;;;;;;;1.40;1.30;;;26.10;40.10;;;;;;5014126;28;20417;-73
2021/05/30 10:46:05;;;;;;;1.42;1.33;;;26.00;38.80;;;;;;5008817;28;20387;-73
2021/05/30 10:48:31;;;;;;;2.45;1.80;;;26.00;38.80;;;;;;4994130;28;20046;-72
2021/05/30 10:51:09;;;;;;;1.55;1.30;;;25.70;38.90;;;;;;4994629;28;20058;-73
2021/05/30 10:53:41;;;;;;;2.10;1.90;;;25.60;38.60;;;;;;4995134;28;20129;-73
2021/05/30 10:56:37;;;;;;;2.03;1.92;;;26.10;39.70;;;;;;4994643;28;20046;-74
2021/05/30 10:59:37;;;;;;;2.95;1.95;;;25.90;39.90;;;;;;4993972;28;20050;-73
2021/05/30 11:02:12;;;;;;;2.70;1.60;;;26.40;39.30;;;;;;5008607;28;20054;-73
2021/05/30 11:04:39;;;;;;;8.95;2.20;;;26.50;39.30;;;;;;5013150;28;20241;-74
2021/05/30 11:07:38;;;;;;;3.22;1.52;;;26.30;39.20;;;;;;4998188;28;20050;-74
2021/05/30 11:10:13;;;;;;;3.67;2.30;;;26.40;39.40;;;;;;5000948;28;20046;-74
2021/05/30 11:12:54;;;;;;;3.35;1.40;;;26.30;38.00;;;;;;4994646;28;20046;-72
2021/05/30 11:15:38;;;;;;;;;;;26.40;38.50;;;;;;4994556;28;20047;-73
2021/05/30 11:18:05;;;;;;;4.10;1.55;;;26.60;38.20;;;;;;4993886;28;19921;-73
2021/05/30 11:20:43;;;;;;;5.13;1.67;;;27.10;38.70;;;;;;4993810;28;20487;-73
2021/05/30 11:23:12;;;;;;;3.08;1.60;;;26.60;38.20;;;;;;4993832;28;20096;-73
2021/05/30 11:25:45;;;;;;;4.43;1.25;;;26.70;39.30;;;;;;4996470;28;20137;-73
2021/05/30 11:28:13;;;;;;;2.15;1.65;;;27.50;38.70;;;;;;5012952;28;20061;-73
2021/05/30 11:30:59;;;;;;;1.40;1.23;;;27.70;37.80;;;;;;5001756;28;20410;-72
2021/05/30 11:33:40;;;;;;;2.03;1.10;;;27.20;36.30;;;;;;4995618;28;20057;-72
2021/05/30 11:36:26;;;;;;;3.90;1.75;;;26.80;38.00;;;;;;4993560;28;20060;-73
2021/05/30 11:38:55;;;;;;;1.58;1.00;;;27.20;37.60;;;;;;4994868;28;20434;-73
2021/05/30 11:41:27;;;;;;;2.58;1.52;;;28.00;37.00;;;;;;4993762;28;20418;-72
2021/05/30 11:44:17;;;;;;;1.35;1.23;;;28.00;36.20;;;;;;5013169;28;20049;-72
2021/05/30 11:46:48;;;;;;;1.38;1.15;;;27.70;36.70;;;;;;5008805;28;20049;-72
2021/05/30 11:49:16;;;;;;;1.80;0.98;;;27.60;36.60;;;;;;5011987;28;20045;-72
2021/05/30 11:51:59;;;;;;;1.55;1.45;;;27.60;36.20;;;;;;5012979;28;20046;-73
2021/05/30 11:54:28;;;;;;;2.13;1.60;;;27.60;37.20;;;;;;5011575;28;20076;-73
2021/05/30 11:56:57;;;;;;;3.17;1.65;;;28.30;36.70;;;;;;5012489;28;20045;-73
2021/05/30 11:59:28;;;;;;;2.03;1.45;;;28.30;36.50;;;;;;5012206;28;20037;-73
2021/05/30 12:01:54;;;;;;;;;;;28.00;36.80;;;;;;5013019;28;20497;-74
2021/05/30 12:04:25;;;;;;;2.60;1.88;;;28.00;37.40;;;;;;5012825;28;19925;-74
2021/05/30 12:06:52;;;;;;;;;;;27.60;37.30;;;;;;5012308;28;20054;-73
2021/05/30 12:09:18;;;;;;;3.15;1.75;;;27.70;36.80;;;;;;5012430;28;19964;-73
2021/05/30 12:11:45;;;;;;;1.98;1.40;;;27.70;37.40;;;;;;5000417;28;20487;-74
2021/05/30 12:14:11;;;;;;;3.40;1.33;;;28.30;39.00;;;;;;4993056;28;20124;-72
2021/05/30 12:16:38;;;;;;;2.10;1.40;;;28.80;38.20;;;;;;5002593;28;20042;-73
2021/05/30 12:19:05;;;;;;;1.60;1.50;;;29.00;37.20;;;;;;5012571;28;20120;-73
2021/05/30 12:21:40;;;;;;;1.92;1.50;;;28.90;37.70;;;;;;5012169;28;20051;-73
2021/05/30 12:24:07;;;;;;;2.25;1.35;;;28.70;37.70;;;;;;5012810;28;20046;-73
2021/05/30 12:26:34;;;;;;;1.98;1.40;;;28.80;36.90;;;;;;5004920;28;20057;-73
2021/05/30 12:29:00;;;;;;;2.30;1.30;;;27.80;36.70;;;;;;4997269;28;20375;-73
2021/05/30 12:31:26;;;;;;;3.08;1.60;;;27.10;38.30;;;;;;5012254;28;20053;-72
2021/05/30 12:33:58;;;;;;;4.32;2.72;;;27.40;38.30;;;;;;5012399;28;20053;-73
2021/05/30 12:36:36;;;;;;;1.67;1.30;;;27.60;38.80;;;;;;5011518;28;20056;-73
2021/05/30 12:39:09;;;;;;;1.83;1.60;;;28.00;38.60;;;;;;5012378;28;20049;-73
2021/05/30 12:41:37;;;;;;;2.80;1.75;;;27.80;38.40;;;;;;5012169;28;20050;-74
2021/05/30 12:44:07;;;;;;;2.72;1.60;;;27.90;38.50;;;;;;4995328;28;20100;-72
2021/05/30 12:46:35;;;;;;;3.80;2.15;;;28.20;39.20;;;;;;5002475;28;20049;-73
2021/05/30 12:49:13;;;;;;;2.15;1.05;;;28.50;36.90;;;;;;5006651;28;20205;-73
2021/05/30 12:51:40;;;;;;;1.65;1.40;;;28.40;36.80;;;;;;4992380;28;20486;-72
2021/05/30 12:54:17;;;;;;;2.65;1.45;;;27.90;37.30;;;;;;4992557;28;20042;-72
2021/05/30 12:56:47;;;;;;;1.33;1.23;;;27.40;38.20;;;;;;4992529;28;20058;-72
2021/05/30 12:59:15;;;;;;;1.42;1.33;;;27.30;38.80;;;;;;4992861;28;20053;-73
2021/05/30 13:01:43;;;;;;;1.77;1.38;;;27.30;38.60;;;;;;5004227;28;20046;-73